createdAt,value
2018-10-19T00:02:19.704Z,98519.23
2018-10-19T00:04:48.540Z,98518.69
2018-10-19T00:07:18.562Z,98512.48
2018-10-19T00:09:47.876Z,98520.00
2018-10-19T00:12:18.547Z,98509.77
2018-10-19T00:14:48.028Z,98509.52
2018-10-19T00:17:17.019Z,98515.17
2018-10-19T00:19:45.545Z,98513.81
2018-10-19T00:22:14.784Z,98515.70
2018-10-19T00:24:44.160Z,98506.57
2018-10-19T00:27:13.105Z,98505.48
2018-10-19T00:29:42.483Z,98511.14
2018-10-19T00:32:13.020Z,98507.10
2018-10-19T00:34:41.922Z,98508.42
2018-10-19T00:37:10.849Z,98504.66
2018-10-19T00:39:39.545Z,98507.34
2018-10-19T00:42:08.503Z,98502.75
2018-10-19T00:44:37.325Z,98499.79
2018-10-19T00:47:06.312Z,98500.05
2018-10-19T00:49:35.214Z,98496.55
2018-10-19T00:52:04.237Z,98494.92
2018-10-19T00:54:33.685Z,98501.89
2018-10-19T00:57:03.537Z,98502.16
2018-10-19T00:59:32.246Z,98507.28
2018-10-19T01:02:01.030Z,98508.89
2018-10-19T01:04:30.677Z,98513.45
2018-10-19T01:06:59.733Z,98513.45
2018-10-19T01:09:29.016Z,98511.31
2018-10-19T01:11:58.060Z,98502.94
2018-10-19T01:14:26.799Z,98504.81
2018-10-19T01:16:55.858Z,98508.63
2018-10-19T01:19:25.247Z,98512.90
2018-10-19T01:21:55.401Z,98513.69
2018-10-19T01:24:24.345Z,98516.09
2018-10-19T01:26:53.076Z,98516.38
2018-10-19T01:29:21.855Z,98515.52
2018-10-19T01:31:51.099Z,98519.55
2018-10-19T01:34:19.700Z,98518.46
2018-10-19T01:36:48.523Z,98521.13
2018-10-19T01:39:17.326Z,98518.46
2018-10-19T01:41:46.060Z,98510.12
2018-10-19T01:44:16.511Z,98513.86
2018-10-19T01:46:49.950Z,98510.62
2018-10-19T01:49:19.804Z,98500.42
2018-10-19T01:51:48.893Z,98509.54
2018-10-19T01:54:17.591Z,98505.25
2018-10-19T01:56:46.961Z,98506.88
2018-10-19T01:59:15.770Z,98499.05
2018-10-19T02:01:45.223Z,98503.31
2018-10-19T02:04:14.139Z,98501.97
2018-10-19T02:06:43.087Z,98503.60
2018-10-19T02:09:13.565Z,98502.24
2018-10-19T02:11:42.186Z,98494.70
2018-10-19T02:14:11.990Z,98498.94
2018-10-19T02:16:41.031Z,98497.03
2018-10-19T02:19:10.310Z,98495.16
2018-10-19T02:21:39.016Z,98495.96
2018-10-19T02:24:07.830Z,98496.76
2018-10-19T02:26:36.539Z,98494.33
2018-10-19T02:29:06.243Z,98493.53
2018-10-19T02:31:35.530Z,98491.64
2018-10-19T02:34:04.198Z,98496.71
2018-10-19T02:36:33.950Z,98496.44
2018-10-19T02:39:03.423Z,98494.80
2018-10-19T02:41:32.894Z,98492.84
2018-10-19T02:44:01.582Z,98494.98
2018-10-19T02:46:30.433Z,98502.52
2018-10-19T02:48:59.194Z,98499.73
2018-10-19T02:51:28.301Z,98498.34
2018-10-19T02:53:57.180Z,98498.02
2018-10-19T02:56:26.716Z,98504.68
2018-10-19T02:58:55.789Z,98508.63
2018-10-19T03:01:25.032Z,98507.27
2018-10-19T03:03:54.197Z,98510.23
2018-10-19T03:06:23.084Z,98507.80
2018-10-19T03:08:52.732Z,98507.19
2018-10-19T03:11:21.545Z,98503.22
2018-10-19T03:13:50.216Z,98504.81
2018-10-19T03:16:19.512Z,98504.58
2018-10-19T03:18:48.221Z,98507.24
2018-10-19T03:21:18.047Z,98511.23
2018-10-19T03:23:47.086Z,98510.95
2018-10-19T03:26:16.181Z,98505.05
2018-10-19T03:28:45.546Z,98506.45
2018-10-19T03:31:14.766Z,98501.11
2018-10-19T03:33:43.550Z,98506.72
2018-10-19T03:36:13.126Z,98506.45
2018-10-19T03:38:42.306Z,98513.42
2018-10-19T03:41:11.027Z,98516.58
2018-10-19T03:43:40.013Z,98515.53
2018-10-19T03:46:08.664Z,98516.26
2018-10-19T03:48:37.406Z,98509.77
2018-10-19T03:51:07.489Z,98509.50
2018-10-19T03:53:36.794Z,98517.17
2018-10-19T03:56:05.862Z,98506.30
2018-10-19T03:58:34.842Z,98513.06
2018-10-19T04:01:04.606Z,98512.73
2018-10-19T04:03:33.503Z,98510.64
2018-10-19T04:06:02.766Z,98515.02
2018-10-19T04:08:32.350Z,98514.48
2018-10-19T04:11:01.381Z,98511.75
2018-10-19T04:13:30.158Z,98508.80
2018-10-19T04:15:59.824Z,98503.97
2018-10-19T04:18:28.960Z,98507.50
2018-10-19T04:20:57.803Z,98508.83
2018-10-19T04:23:27.346Z,98514.08
2018-10-19T04:25:56.611Z,98511.59
2018-10-19T04:28:25.433Z,98511.95
2018-10-19T04:30:55.117Z,98520.98
2018-10-19T04:33:23.893Z,98523.42
2018-10-19T04:35:53.433Z,98520.16
2018-10-19T04:38:23.135Z,98526.53
2018-10-19T04:40:53.043Z,98522.77
2018-10-19T04:43:21.675Z,98527.09
2018-10-19T04:45:50.502Z,98524.97
2018-10-19T04:48:19.397Z,98528.33
2018-10-19T04:50:48.049Z,98538.42
2018-10-19T04:53:17.162Z,98531.42
2018-10-19T04:55:46.312Z,98531.46
2018-10-19T04:58:15.736Z,98534.00
2018-10-19T05:00:44.728Z,98538.43
2018-10-19T05:03:14.230Z,98540.36
2018-10-19T05:05:42.878Z,98546.69
2018-10-19T05:08:13.453Z,98548.51
2018-10-19T05:10:42.461Z,98551.78
2018-10-19T05:13:11.856Z,98561.97
2018-10-19T05:15:41.388Z,98569.74
2018-10-19T05:18:10.327Z,98575.66
2018-10-19T05:20:39.540Z,98575.09
2018-10-19T05:23:09.075Z,98580.72
2018-10-19T05:25:38.154Z,98578.00
2018-10-19T05:28:07.301Z,98575.87
2018-10-19T05:30:36.066Z,98577.22
2018-10-19T05:33:04.997Z,98577.78
2018-10-19T05:35:33.836Z,98576.14
2018-10-19T05:38:03.065Z,98581.80
2018-10-19T05:40:31.932Z,98581.97
2018-10-19T05:43:00.598Z,98583.87
2018-10-19T05:45:29.772Z,98575.33
2018-10-19T05:47:59.082Z,98575.09
2018-10-19T05:50:27.976Z,98584.18
2018-10-19T05:52:57.425Z,98585.30
2018-10-19T05:55:26.698Z,98588.67
2018-10-19T05:57:55.814Z,98595.41
2018-10-19T06:00:26.001Z,98597.86
2018-10-19T06:02:55.336Z,98600.77
2018-10-19T06:05:24.575Z,98597.01
2018-10-19T06:07:53.439Z,98599.13
2018-10-19T06:10:22.124Z,98606.86
2018-10-19T06:12:51.676Z,98610.48
2018-10-19T06:15:20.438Z,98602.48
2018-10-19T06:17:49.643Z,98607.70
2018-10-19T06:20:18.677Z,98613.44
2018-10-19T06:22:48.108Z,98619.13
2018-10-19T06:25:16.772Z,98625.80
2018-10-19T06:27:45.493Z,98625.80
2018-10-19T06:30:14.787Z,98627.17
2018-10-19T06:32:44.170Z,98632.94
2018-10-19T06:35:13.259Z,98639.91
2018-10-19T06:37:42.433Z,98640.50
2018-10-19T06:40:11.349Z,98646.01
2018-10-19T06:42:41.081Z,98645.96
2018-10-19T06:45:11.733Z,98644.53
2018-10-19T06:47:41.529Z,98640.42
2018-10-19T06:50:12.849Z,98648.62
2018-10-19T06:52:42.797Z,98649.44
2018-10-19T06:55:14.968Z,98647.48
2018-10-19T06:57:43.967Z,98651.16
2018-10-19T07:00:13.777Z,98650.37
2018-10-19T07:02:42.667Z,98652.64
2018-10-19T07:05:11.632Z,98657.50
2018-10-19T07:07:40.936Z,98663.91
2018-10-19T07:10:10.736Z,98664.58
2018-10-19T07:12:40.990Z,98663.36
2018-10-19T07:15:11.523Z,98667.17
2018-10-19T07:17:40.383Z,98671.28
2018-10-19T07:20:10.451Z,98668.35
2018-10-19T07:22:39.412Z,98662.73
2018-10-19T07:25:08.605Z,98663.87
2018-10-19T07:27:38.551Z,98671.72
2018-10-19T07:30:07.502Z,98667.92
2018-10-19T07:32:37.187Z,98664.42
2018-10-19T07:35:08.465Z,98664.67
2018-10-19T07:37:38.309Z,98668.18
2018-10-19T07:40:07.642Z,98672.48
2018-10-19T07:42:37.173Z,98671.28
2018-10-19T07:45:06.677Z,98682.27
2018-10-19T07:47:35.507Z,98683.75
2018-10-19T07:50:04.919Z,98681.67
2018-10-19T07:52:33.813Z,98687.68
2018-10-19T07:55:03.052Z,98685.45
2018-10-19T07:57:32.481Z,98681.24
2018-10-19T08:00:01.485Z,98682.41
2018-10-19T08:02:31.308Z,98686.86
2018-10-19T08:05:00.079Z,98693.69
2018-10-19T08:07:29.202Z,98695.46
2018-10-19T08:09:58.566Z,98687.55
2018-10-19T08:12:27.577Z,98686.09
2018-10-19T08:14:57.022Z,98683.37
2018-10-19T08:17:26.972Z,98684.27
2018-10-19T08:19:55.877Z,98682.54
2018-10-19T08:22:24.692Z,98682.05
2018-10-19T08:24:54.512Z,98680.81
2018-10-19T08:27:23.926Z,98680.44
2018-10-19T08:29:54.546Z,98687.47
2018-10-19T08:32:23.369Z,98678.02
2018-10-19T08:34:52.497Z,98684.66
2018-10-19T08:37:21.206Z,98683.28
2018-10-19T08:39:50.119Z,98685.52
2018-10-19T08:42:19.213Z,98687.48
2018-10-19T08:44:48.292Z,98686.64
2018-10-19T08:47:17.812Z,98682.44
2018-10-19T08:49:47.704Z,98691.30
2018-10-19T08:52:16.797Z,98691.35
2018-10-19T08:54:45.622Z,98686.66
2018-10-19T08:57:14.609Z,98684.95
2018-10-19T08:59:43.844Z,98695.29
2018-10-19T09:02:12.937Z,98688.82
2018-10-19T09:04:42.773Z,98685.48
2018-10-19T09:07:12.156Z,98685.29
2018-10-19T09:09:40.837Z,98690.36
2018-10-19T09:12:10.199Z,98688.37
2018-10-19T09:14:51.818Z,98684.13
2018-10-19T09:17:20.903Z,98683.88
2018-10-19T09:19:51.086Z,98685.61
2018-10-19T09:22:20.935Z,98685.94
2018-10-19T09:24:50.259Z,98682.63
2018-10-19T09:27:19.308Z,98685.69
2018-10-19T09:29:48.402Z,98678.59
2018-10-19T09:32:17.774Z,98682.98
2018-10-19T09:34:46.604Z,98681.91
2018-10-19T09:37:15.829Z,98679.52
2018-10-19T09:39:45.124Z,98670.95
2018-10-19T09:42:13.985Z,98676.77
2018-10-19T09:44:43.489Z,98668.24
2018-10-19T09:47:12.403Z,98670.61
2018-10-19T09:49:41.764Z,98675.34
2018-10-19T09:52:11.111Z,98665.81
2018-10-19T09:54:40.247Z,98678.09
2018-10-19T09:57:09.581Z,98690.99
2018-10-19T09:59:38.399Z,98684.55
2018-10-19T10:02:07.984Z,98683.20
2018-10-19T10:04:37.137Z,98686.14
2018-10-19T10:07:06.582Z,98680.17
2018-10-19T10:09:35.575Z,98678.55
2018-10-19T10:12:04.668Z,98680.28
2018-10-19T10:14:33.643Z,98681.84
2018-10-19T10:17:02.750Z,98675.08
2018-10-19T10:19:32.403Z,98676.84
2018-10-19T10:22:01.370Z,98670.62
2018-10-19T10:24:30.304Z,98672.73
2018-10-19T10:26:59.110Z,98667.09
2018-10-19T10:29:27.897Z,98666.87
2018-10-19T10:31:56.697Z,98671.73
2018-10-19T10:34:25.724Z,98665.64
2018-10-19T10:36:54.796Z,98663.95
2018-10-19T10:39:24.319Z,98668.59
2018-10-19T10:41:53.698Z,98667.39
2018-10-19T10:44:22.840Z,98667.18
2018-10-19T10:46:52.148Z,98669.88
2018-10-19T10:49:21.503Z,98664.95
2018-10-19T10:51:51.605Z,98657.42
2018-10-19T10:54:20.552Z,98663.86
2018-10-19T10:56:50.273Z,98658.06
2018-10-19T10:59:19.863Z,98658.26
2018-10-19T11:01:49.949Z,98657.00
2018-10-19T11:04:19.674Z,98652.70
2018-10-19T11:06:49.818Z,98652.19
2018-10-19T11:09:19.524Z,98645.51
2018-10-19T11:11:49.167Z,98643.07
2018-10-19T11:14:19.572Z,98647.23
2018-10-19T11:16:48.880Z,98641.89
2018-10-19T11:19:17.953Z,98631.94
2018-10-19T11:21:47.459Z,98630.25
2018-10-19T11:24:17.523Z,98626.20
2018-10-19T11:26:48.603Z,98620.22
2018-10-19T11:29:17.728Z,98621.44
2018-10-19T11:31:46.780Z,98616.08
2018-10-19T11:34:15.760Z,98609.98
2018-10-19T11:36:44.472Z,98607.72
2018-10-19T11:39:13.549Z,98610.47
2018-10-19T11:41:42.273Z,98606.48
2018-10-19T11:44:11.903Z,98602.84
2018-10-19T11:46:41.319Z,98605.13
2018-10-19T11:49:09.962Z,98603.64
2018-10-19T11:51:39.617Z,98596.67
2018-10-19T11:54:08.800Z,98592.08
2018-10-19T11:56:38.415Z,98589.63
2018-10-19T11:59:07.333Z,98595.30
2018-10-19T12:01:37.024Z,98585.45
2018-10-19T12:04:06.812Z,98588.18
2018-10-19T12:06:35.781Z,98590.20
2018-10-19T12:09:08.290Z,98589.52
2018-10-19T12:11:37.645Z,98581.64
2018-10-19T12:14:06.501Z,98579.53
2018-10-19T12:16:35.679Z,98580.67
2018-10-19T12:19:05.261Z,98576.14
2018-10-19T12:21:34.143Z,98580.03
2018-10-19T12:24:03.355Z,98582.53
2018-10-19T12:26:32.715Z,98575.84
2018-10-19T12:29:01.943Z,98569.56
2018-10-19T12:31:31.016Z,98566.58
2018-10-19T12:34:00.425Z,98569.83
2018-10-19T12:36:29.577Z,98568.52
2018-10-19T12:38:58.627Z,98578.34
2018-10-19T12:41:27.680Z,98574.64
2018-10-19T12:43:57.303Z,98572.73
2018-10-19T12:46:41.065Z,98569.18
2018-10-19T12:49:10.529Z,98564.41
2018-10-19T12:51:39.638Z,98565.25
2018-10-19T12:54:08.875Z,98565.01
2018-10-19T12:56:37.770Z,98555.97
2018-10-19T12:59:07.302Z,98559.31
2018-10-19T13:01:36.410Z,98562.95
2018-10-19T13:04:06.081Z,98558.31
2018-10-19T13:06:34.784Z,98568.73
2018-10-19T13:09:06.124Z,98560.94
2018-10-19T13:11:35.235Z,98564.19
2018-10-19T13:14:04.303Z,98559.33
2018-10-19T13:16:33.540Z,98558.27
2018-10-19T13:19:02.803Z,98555.61
2018-10-19T13:21:31.968Z,98554.27
2018-10-19T13:24:01.401Z,98559.59
2018-10-19T13:26:30.313Z,98556.27
2018-10-19T13:28:59.756Z,98550.96
2018-10-19T13:31:28.896Z,98558.25
2018-10-19T13:33:57.738Z,98555.29
2018-10-19T13:36:26.422Z,98554.19
2018-10-19T13:38:55.644Z,98551.42
2018-10-19T13:41:24.551Z,98552.91
2018-10-19T13:43:53.339Z,98553.92
2018-10-19T13:46:22.221Z,98549.66
2018-10-19T13:48:51.225Z,98551.94
2018-10-19T13:51:20.030Z,98551.17
2018-10-19T13:53:48.973Z,98546.94
2018-10-19T13:56:18.176Z,98549.26
2018-10-19T13:58:47.379Z,98550.50
2018-10-19T14:01:16.256Z,98547.55
2018-10-19T14:03:45.345Z,98548.81
2018-10-19T14:06:15.097Z,98541.20
2018-10-19T14:08:45.328Z,98543.08
2018-10-19T14:11:14.120Z,98543.83
2018-10-19T14:13:42.764Z,98538.57
2018-10-19T14:16:11.644Z,98544.30
2018-10-19T14:18:41.258Z,98533.77
2018-10-19T14:21:10.694Z,98527.90
2018-10-19T14:23:39.625Z,98528.13
2018-10-19T14:26:09.380Z,98524.72
2018-10-19T14:28:38.114Z,98525.62
2018-10-19T14:31:08.169Z,98520.31
2018-10-19T14:33:37.669Z,98517.67
2018-10-19T14:36:06.567Z,98524.63
2018-10-19T14:38:36.135Z,98522.67
2018-10-19T14:41:05.250Z,98533.45
2018-10-19T14:43:34.433Z,98529.81
2018-10-19T14:46:03.762Z,98535.72
2018-10-19T14:48:32.851Z,98539.60
2018-10-19T14:51:01.794Z,98534.74
2018-10-19T14:53:30.669Z,98535.49
2018-10-19T14:55:59.343Z,98538.39
2018-10-19T14:58:28.787Z,98536.53
2018-10-19T15:00:57.644Z,98536.94
2018-10-19T15:03:26.564Z,98529.44
2018-10-19T15:05:55.424Z,98527.63
2018-10-19T15:08:24.918Z,98526.94
2018-10-19T15:10:54.020Z,98529.66
2018-10-19T15:13:23.195Z,98527.16
2018-10-19T15:15:52.253Z,98528.34
2018-10-19T15:18:21.570Z,98530.00
2018-10-19T15:20:50.417Z,98534.86
2018-10-19T15:23:19.779Z,98534.05
2018-10-19T15:25:49.439Z,98533.83
2018-10-19T15:28:18.523Z,98534.96
2018-10-19T15:30:47.845Z,98537.97
2018-10-19T15:33:17.023Z,98534.78
2018-10-19T15:35:46.291Z,98543.69
2018-10-19T15:38:15.311Z,98538.07
2018-10-19T15:40:44.196Z,98542.31
2018-10-19T15:43:12.965Z,98543.23
2018-10-19T15:45:42.076Z,98539.81
2018-10-19T15:48:12.163Z,98545.30
2018-10-19T15:50:41.115Z,98544.11
2018-10-19T15:53:11.264Z,98546.55
2018-10-19T15:55:40.161Z,98547.45
2018-10-19T15:58:09.155Z,98546.28
2018-10-19T16:00:38.386Z,98545.28
2018-10-19T16:03:07.661Z,98555.99
2018-10-19T16:05:36.763Z,98556.78
2018-10-19T16:08:06.015Z,98564.02
2018-10-19T16:10:35.625Z,98562.11
2018-10-19T16:13:04.652Z,98561.48
2018-10-19T16:15:33.568Z,98564.73
2018-10-19T16:18:04.690Z,98567.80
2018-10-19T16:20:33.687Z,98565.85
2018-10-19T16:23:03.276Z,98571.53
2018-10-19T16:25:32.399Z,98572.62
2018-10-19T16:28:01.785Z,98574.78
2018-10-19T16:30:32.088Z,98578.08
2018-10-19T16:33:02.259Z,98583.08
2018-10-19T16:35:31.217Z,98587.03
2018-10-19T16:38:00.741Z,98585.91
2018-10-19T16:40:29.715Z,98588.16
2018-10-19T16:42:59.212Z,98589.83
2018-10-19T16:45:28.206Z,98597.30
2018-10-19T16:47:57.369Z,98597.67
2018-10-19T16:50:26.225Z,98601.38
2018-10-19T16:52:55.367Z,98602.42
2018-10-19T16:55:24.246Z,98601.80
2018-10-19T16:57:54.408Z,98606.49
2018-10-19T17:00:23.492Z,98605.77
2018-10-19T17:02:52.860Z,98616.29
2018-10-19T17:05:22.054Z,98619.67
2018-10-19T17:07:51.685Z,98617.73
2018-10-19T17:10:20.592Z,98614.22
2018-10-19T17:12:49.436Z,98611.63
2018-10-19T17:15:19.840Z,98614.06
2018-10-19T17:17:49.510Z,98623.36
2018-10-19T17:20:18.532Z,98622.41
2018-10-19T17:22:47.733Z,98630.69
2018-10-19T17:25:17.099Z,98630.91
2018-10-19T17:27:45.940Z,98633.20
2018-10-19T17:30:15.383Z,98635.30
2018-10-19T17:32:44.369Z,98634.79
2018-10-19T17:35:13.784Z,98640.95
2018-10-19T17:37:42.990Z,98646.92
2018-10-19T17:40:12.167Z,98647.47
2018-10-19T17:42:41.341Z,98651.00
2018-10-19T17:45:11.637Z,98650.27
2018-10-19T17:47:42.700Z,98655.80
2018-10-19T17:50:12.523Z,98660.92
2018-10-19T17:52:42.215Z,98656.69
2018-10-19T17:55:12.905Z,98661.52
2018-10-19T17:57:42.083Z,98656.94
2018-10-19T18:00:13.327Z,98661.28
2018-10-19T18:02:43.090Z,98659.01
2018-10-19T18:05:12.154Z,98665.47
2018-10-19T18:07:41.483Z,98662.72
2018-10-19T18:10:13.508Z,98661.94
2018-10-19T18:12:42.998Z,98661.43
2018-10-19T18:15:13.421Z,98665.49
2018-10-19T18:17:43.198Z,98662.34
2018-10-19T18:20:12.507Z,98663.48
2018-10-19T18:22:42.889Z,98667.09
2018-10-19T18:25:12.907Z,98665.12
2018-10-19T18:27:43.062Z,98669.02
2018-10-19T18:30:13.170Z,98677.33
2018-10-19T18:32:43.298Z,98680.19
2018-10-19T18:35:12.819Z,98683.21
2018-10-19T18:37:42.223Z,98682.96
2018-10-19T18:40:12.345Z,98683.48
2018-10-19T18:42:41.545Z,98684.97
2018-10-19T18:45:10.958Z,98683.91
2018-10-19T18:47:40.835Z,98685.62
2018-10-19T18:50:10.129Z,98685.06
2018-10-19T18:52:39.903Z,98686.44
2018-10-19T18:55:08.870Z,98687.06
2018-10-19T18:57:37.674Z,98693.84
2018-10-19T19:00:08.917Z,98697.11
2018-10-19T19:02:37.993Z,98707.53
2018-10-19T19:05:07.453Z,98712.39
2018-10-19T19:07:37.832Z,98713.26
2018-10-19T19:10:11.296Z,98713.10
2018-10-19T19:12:40.840Z,98728.00
2018-10-19T19:15:10.485Z,98729.92
2018-10-19T19:17:39.901Z,98743.53
2018-10-19T19:20:14.512Z,98738.95
2018-10-19T19:22:43.723Z,98742.73
2018-10-19T19:25:18.572Z,98747.30
2018-10-19T19:27:48.322Z,98744.69
2018-10-19T19:30:18.022Z,98750.20
2018-10-19T19:32:51.952Z,98756.67
2018-10-19T19:35:20.898Z,98759.89
2018-10-19T19:37:50.065Z,98758.32
2018-10-19T19:40:19.588Z,98763.20
2018-10-19T19:42:54.207Z,98768.88
2018-10-19T19:45:24.130Z,98766.96
2018-10-19T19:47:58.422Z,98768.36
2018-10-19T19:50:27.495Z,98773.23
2018-10-19T19:52:56.526Z,98770.00
2018-10-19T19:55:26.251Z,98776.46
2018-10-19T19:57:55.208Z,98770.29
2018-10-19T20:00:24.256Z,98777.32
2018-10-19T20:02:53.408Z,98772.45
2018-10-19T20:05:22.457Z,98780.58
2018-10-19T20:07:51.673Z,98786.23
2018-10-19T20:10:21.197Z,98787.58
2018-10-19T20:12:50.261Z,98788.40
2018-10-19T20:15:19.800Z,98789.49
2018-10-19T20:17:48.781Z,98791.66
2018-10-19T20:20:18.917Z,98788.95
2018-10-19T20:22:48.028Z,98800.30
2018-10-19T20:25:17.604Z,98798.94
2018-10-19T20:27:46.773Z,98801.66
2018-10-19T20:30:15.930Z,98805.15
2018-10-19T20:32:45.345Z,98808.66
2018-10-19T20:35:14.515Z,98813.50
2018-10-19T20:37:43.678Z,98817.53
2018-10-19T20:40:12.691Z,98807.02
2018-10-19T20:42:42.232Z,98811.08
2018-10-19T20:45:11.216Z,98808.91
2018-10-19T20:47:40.171Z,98815.10
2018-10-19T20:50:10.542Z,98812.15
2018-10-19T20:52:39.368Z,98806.50
2018-10-19T20:55:10.016Z,98811.31
2018-10-19T20:57:38.987Z,98813.76
2018-10-19T21:00:08.994Z,98818.03
2018-10-19T21:02:37.922Z,98819.58
2018-10-19T21:05:07.683Z,98815.02
2018-10-19T21:07:36.773Z,98819.61
2018-10-19T21:10:07.507Z,98816.88
2018-10-19T21:12:36.729Z,98820.09
2018-10-19T21:15:06.493Z,98821.47
2018-10-19T21:17:36.315Z,98822.51
2018-10-19T21:20:05.452Z,98828.43
2018-10-19T21:22:34.799Z,98829.46
2018-10-19T21:25:03.788Z,98827.30
2018-10-19T21:27:32.697Z,98829.17
2018-10-19T21:30:01.903Z,98824.02
2018-10-19T21:32:30.754Z,98826.47
2018-10-19T21:34:59.561Z,98832.14
2018-10-19T21:37:28.631Z,98824.88
2018-10-19T21:39:57.954Z,98831.26
2018-10-19T21:42:26.998Z,98834.23
2018-10-19T21:44:56.319Z,98828.55
2018-10-19T21:47:25.903Z,98831.20
2018-10-19T21:49:54.903Z,98828.52
2018-10-19T21:52:24.039Z,98837.64
2018-10-19T21:54:53.088Z,98839.20
2018-10-19T21:57:22.239Z,98843.20
2018-10-19T21:59:51.847Z,98843.75
2018-10-19T22:02:20.942Z,98843.73
2018-10-19T22:04:49.766Z,98847.20
2018-10-19T22:07:19.244Z,98847.75
2018-10-19T22:09:48.617Z,98851.28
2018-10-19T22:12:17.386Z,98852.33
2018-10-19T22:14:46.916Z,98857.19
2018-10-19T22:17:16.322Z,98847.14
2018-10-19T22:19:45.493Z,98850.09
2018-10-19T22:22:15.218Z,98847.09
2018-10-19T22:24:44.616Z,98847.63
2018-10-19T22:27:14.131Z,98854.02
2018-10-19T22:29:42.950Z,98851.77
2018-10-19T22:32:11.974Z,98852.25
2018-10-19T22:34:40.783Z,98854.72
2018-10-19T22:37:10.094Z,98855.98
2018-10-19T22:39:38.999Z,98850.91
2018-10-19T22:42:08.004Z,98853.59
2018-10-19T22:44:37.669Z,98857.33
2018-10-19T22:47:06.950Z,98854.62
2018-10-19T22:49:36.087Z,98856.55
2018-10-19T22:52:05.603Z,98852.09
2018-10-19T22:54:34.961Z,98850.19
2018-10-19T22:57:03.795Z,98855.83
2018-10-19T22:59:32.598Z,98855.36
2018-10-19T23:02:02.232Z,98860.97
2018-10-19T23:04:31.141Z,98860.33
2018-10-19T23:07:00.832Z,98864.39
2018-10-19T23:09:31.993Z,98859.86
2018-10-19T23:12:02.218Z,98865.19
2018-10-19T23:14:31.247Z,98866.14
2018-10-19T23:17:00.512Z,98869.56
2018-10-19T23:19:29.782Z,98875.13
2018-10-19T23:21:58.579Z,98872.58
2018-10-19T23:24:28.341Z,98871.47
2018-10-19T23:26:57.567Z,98873.17
2018-10-19T23:29:26.565Z,98878.28
2018-10-19T23:31:56.308Z,98876.34
2018-10-19T23:34:25.461Z,98876.70
2018-10-19T23:37:02.172Z,98877.39
2018-10-19T23:39:31.375Z,98872.11
2018-10-19T23:42:00.633Z,98870.06
2018-10-19T23:44:29.773Z,98872.75
2018-10-19T23:46:58.569Z,98877.89
2018-10-19T23:49:27.448Z,98879.38
2018-10-19T23:51:56.604Z,98874.61
2018-10-19T23:54:25.635Z,98871.41
2018-10-19T23:56:54.678Z,98873.64
2018-10-19T23:59:24.121Z,98875.28
